Thor Heyerdahl — DKQH — position and weather

sailwx.info

Track history (hours):
 
Tides and Currents Weather Stations Pressure Air Temp Water Temp Dewpoint Dewpoint Depression Visibility Wind Speed Wind Dir Waves Ship Positions

Thor Heyerdahl

Last reported at 2017-Nov-12 15:33 UTC. Time now 2017-Nov-18 14:11 UTC.
Position N 28°28' W 016°15'.

beam 6.5 m; draft 2.2 m.

Type: Sailing vessel. MMSI: 211232340.

Date/timePositionNaut miles runAvg speedWind from/ knotsBaromVisibWave heightAir tempDewpointWater temp
2017-Nov-12 15:33N 28°28' W 016°15'0 0.0
2017-Nov-12 15:21N 28°28' W 016°15'0 0.0
2017-Nov-12 14:51N 28°28' W 016°15'0 0.0
2017-Nov-12 14:24N 28°28' W 016°15'0 0.0
2017-Nov-12 13:54N 28°28' W 016°15'0 0.0
2017-Nov-12 13:24N 28°28' W 016°15'0 0.0
2017-Nov-12 12:51N 28°28' W 016°15'0 0.0
2017-Nov-12 12:09N 28°28' W 016°15'0 0.0
2017-Nov-12 08:20N 28°28' W 016°15'1 1.8
2017-Nov-12 08:00N 28°27' W 016°15'3 5.2
2017-Nov-12 07:30N 28°28' W 016°12'2 4.2
2017-Nov-12 07:00N 28°29' W 016°10'1 2.0
2017-Nov-12 06:24N 28°30' W 016°09'1 2.3
2017-Nov-12 05:58N 28°30' W 016°08'2 3.6
2017-Nov-12 05:30N 28°31' W 016°07'2 3.8
2017-Nov-12 05:00N 28°33' W 016°06'2 3.4
2017-Nov-12 04:30N 28°35' W 016°06'1 1.7
2017-Nov-12 04:00N 28°36' W 016°06'0 0.6
2017-Nov-12 03:30N 28°36' W 016°06'0 0.7
2017-Nov-12 03:00N 28°36' W 016°06'1 2.1
2017-Nov-12 02:30N 28°37' W 016°06'2 3.0
2017-Nov-12 02:00N 28°37' W 016°08'1 2.9
2017-Nov-12 01:30N 28°38' W 016°09'1 2.8
2017-Nov-12 01:00N 28°38' W 016°11'1 2.7
2017-Nov-12 00:30N 28°39' W 016°12'1 2.6
2017-Nov-12 00:00N 28°39' W 016°14'1 2.4
2017-Nov-11 23:30N 28°40' W 016°15'1 2.0
2017-Nov-11 22:46N 28°40' W 016°17'1 1.8
2017-Nov-11 22:20N 28°40' W 016°18'12 1.2
2017-Nov-11 12:28N 28°42' W 016°31'1 2.8
2017-Nov-11 11:59N 28°44' W 016°31'2 3.9
2017-Nov-11 11:29N 28°45' W 016°33'3 4.3
2017-Nov-11 10:53N 28°47' W 016°34'2 6.0
2017-Nov-11 10:30N 28°49' W 016°35'3 6.0
2017-Nov-11 09:59N 28°53' W 016°36'3 6.1
2017-Nov-11 09:30N 28°55' W 016°37'3 5.3
2017-Nov-11 09:00N 28°58' W 016°38'3 6.3
2017-Nov-11 08:30N 29°01' W 016°39'3 5.9
2017-Nov-11 08:00N 29°04' W 016°40'3 6.0
2017-Nov-11 07:30N 29°06' W 016°42'3 5.8
2017-Nov-11 07:00N 29°09' W 016°43'3 6.0
2017-Nov-11 06:30N 29°12' W 016°45'4 6.1
2017-Nov-11 05:49N 29°15' W 016°47'3 6.0
2017-Nov-11 05:23N 29°18' W 016°48'2 5.3
2017-Nov-11 05:00N 29°20' W 016°48'5 5.2
2017-Nov-11 04:07N 29°24' W 016°49'1 5.2
2017-Nov-11 03:59N 29°25' W 016°49'3 5.2
2017-Nov-11 03:30N 29°27' W 016°50'3 5.2
2017-Nov-11 03:00N 29°30' W 016°51'3 5.4
2017-Nov-11 02:30N 29°33' W 016°51'  
2017-Nov-06 12:00N 34°30' W 015°24'115 6.4 050 / 181023.2 5.4 21.013.822.0
2017-Nov-05 18:00N 36°18' W 014°36'41 6.8 060 / 161026.5 5.4 19.0 4.720.5
2017-Nov-05 12:00N 36°54' W 014°12'   020 / 181028.0 5.4 20.512.220.4
Track history (hours):
 
Tides and Currents Weather Stations Pressure Air Temp Water Temp Dewpoint Dewpoint Depression Visibility Wind Speed Wind Dir Waves Ship Positions

Thor Heyerdahl

Last reported at 2017-Nov-12 15:33 UTC. Time now 2017-Nov-18 14:11 UTC.
Position N 28°28' W 016°15'.

beam 6.5 m; draft 2.2 m.

Type: Sailing vessel. MMSI: 211232340.

Date/timePositionNaut miles runAvg speedWind from/ knotsBaromVisibWave heightAir tempDewpointWater temp
2017-Nov-12 15:33N 28°28' W 016°15'0 0.0
2017-Nov-12 15:21N 28°28' W 016°15'0 0.0
2017-Nov-12 14:51N 28°28' W 016°15'0 0.0
2017-Nov-12 14:24N 28°28' W 016°15'0 0.0
2017-Nov-12 13:54N 28°28' W 016°15'0 0.0
2017-Nov-12 13:24N 28°28' W 016°15'0 0.0
2017-Nov-12 12:51N 28°28' W 016°15'0 0.0
2017-Nov-12 12:09N 28°28' W 016°15'0 0.0
2017-Nov-12 08:20N 28°28' W 016°15'1 1.8
2017-Nov-12 08:00N 28°27' W 016°15'3 5.2
2017-Nov-12 07:30N 28°28' W 016°12'2 4.2
2017-Nov-12 07:00N 28°29' W 016°10'1 2.0
2017-Nov-12 06:24N 28°30' W 016°09'1 2.3
2017-Nov-12 05:58N 28°30' W 016°08'2 3.6
2017-Nov-12 05:30N 28°31' W 016°07'2 3.8
2017-Nov-12 05:00N 28°33' W 016°06'2 3.4
2017-Nov-12 04:30N 28°35' W 016°06'1 1.7
2017-Nov-12 04:00N 28°36' W 016°06'0 0.6
2017-Nov-12 03:30N 28°36' W 016°06'0 0.7
2017-Nov-12 03:00N 28°36' W 016°06'1 2.1
2017-Nov-12 02:30N 28°37' W 016°06'2 3.0
2017-Nov-12 02:00N 28°37' W 016°08'1 2.9
2017-Nov-12 01:30N 28°38' W 016°09'1 2.8
2017-Nov-12 01:00N 28°38' W 016°11'1 2.7
2017-Nov-12 00:30N 28°39' W 016°12'1 2.6
2017-Nov-12 00:00N 28°39' W 016°14'1 2.4
2017-Nov-11 23:30N 28°40' W 016°15'1 2.0
2017-Nov-11 22:46N 28°40' W 016°17'1 1.8
2017-Nov-11 22:20N 28°40' W 016°18'12 1.2
2017-Nov-11 12:28N 28°42' W 016°31'1 2.8
2017-Nov-11 11:59N 28°44' W 016°31'2 3.9
2017-Nov-11 11:29N 28°45' W 016°33'3 4.3
2017-Nov-11 10:53N 28°47' W 016°34'2 6.0
2017-Nov-11 10:30N 28°49' W 016°35'3 6.0
2017-Nov-11 09:59N 28°53' W 016°36'3 6.1
2017-Nov-11 09:30N 28°55' W 016°37'3 5.3
2017-Nov-11 09:00N 28°58' W 016°38'3 6.3
2017-Nov-11 08:30N 29°01' W 016°39'3 5.9
2017-Nov-11 08:00N 29°04' W 016°40'3 6.0
2017-Nov-11 07:30N 29°06' W 016°42'3 5.8
2017-Nov-11 07:00N 29°09' W 016°43'3 6.0
2017-Nov-11 06:30N 29°12' W 016°45'4 6.1
2017-Nov-11 05:49N 29°15' W 016°47'3 6.0
2017-Nov-11 05:23N 29°18' W 016°48'2 5.3
2017-Nov-11 05:00N 29°20' W 016°48'5 5.2
2017-Nov-11 04:07N 29°24' W 016°49'1 5.2
2017-Nov-11 03:59N 29°25' W 016°49'3 5.2
2017-Nov-11 03:30N 29°27' W 016°50'3 5.2
2017-Nov-11 03:00N 29°30' W 016°51'3 5.4
2017-Nov-11 02:30N 29°33' W 016°51'  
2017-Nov-06 12:00N 34°30' W 015°24'115 6.4 050 / 181023.2 5.4 21.013.822.0
2017-Nov-05 18:00N 36°18' W 014°36'41 6.8 060 / 161026.5 5.4 19.0 4.720.5
2017-Nov-05 12:00N 36°54' W 014°12'   020 / 181028.0 5.4 20.512.220.4

Dump ship's entire track history